createdAt,value
2018-08-04T00:01:34.405Z,35.10
2018-08-04T00:04:02.787Z,35.30
2018-08-04T00:06:32.854Z,35.30
2018-08-04T00:09:01.256Z,35.40
2018-08-04T00:11:29.646Z,35.50
2018-08-04T00:13:58.272Z,35.40
2018-08-04T00:16:26.642Z,35.40
2018-08-04T00:18:55.038Z,35.50
2018-08-04T00:21:23.433Z,35.70
2018-08-04T00:23:51.821Z,36.00
2018-08-04T00:26:20.219Z,35.90
2018-08-04T00:28:48.576Z,36.00
2018-08-04T00:31:16.875Z,36.20
2018-08-04T00:33:45.200Z,36.10
2018-08-04T00:36:13.584Z,36.20
2018-08-04T00:38:41.956Z,36.40
2018-08-04T00:41:10.987Z,36.40
2018-08-04T00:43:39.400Z,36.60
2018-08-04T00:46:07.843Z,36.80
2018-08-04T00:48:36.262Z,36.90
2018-08-04T00:51:04.619Z,37.10
2018-08-04T00:53:33.010Z,37.10
2018-08-04T00:56:01.343Z,37.20
2018-08-04T00:58:29.844Z,37.40
2018-08-04T01:00:58.223Z,37.30
2018-08-04T01:03:26.651Z,37.00
2018-08-04T01:05:55.138Z,37.30
2018-08-04T01:08:23.442Z,37.70
2018-08-04T01:10:51.745Z,37.40
2018-08-04T01:13:20.101Z,37.50
2018-08-04T01:15:48.372Z,38.20
2018-08-04T01:18:16.780Z,37.80
2018-08-04T01:20:45.067Z,38.10
2018-08-04T01:23:13.381Z,38.10
2018-08-04T01:25:41.722Z,38.30
2018-08-04T01:28:10.191Z,38.10
2018-08-04T01:30:38.534Z,38.20
2018-08-04T01:33:06.844Z,38.30
2018-08-04T01:35:35.158Z,38.20
2018-08-04T01:38:03.539Z,38.10
2018-08-04T01:40:31.953Z,38.00
2018-08-04T01:43:00.292Z,38.10
2018-08-04T01:45:28.674Z,38.10
2018-08-04T01:47:57.063Z,38.00
2018-08-04T01:50:25.504Z,38.00
2018-08-04T01:52:53.811Z,38.10
2018-08-04T01:55:22.120Z,38.00
2018-08-04T01:57:50.444Z,38.10
2018-08-04T02:00:21.646Z,38.90
2018-08-04T02:02:49.943Z,38.20
2018-08-04T02:05:18.255Z,38.20
2018-08-04T02:07:46.561Z,38.20
2018-08-04T02:10:14.913Z,38.20
2018-08-04T02:12:43.249Z,38.30
2018-08-04T02:15:11.670Z,38.30
2018-08-04T02:17:40.090Z,38.20
2018-08-04T02:20:08.497Z,38.20
2018-08-04T02:22:36.982Z,38.20
2018-08-04T02:25:06.108Z,38.20
2018-08-04T02:27:34.434Z,38.40
2018-08-04T02:30:03.013Z,38.40
2018-08-04T02:32:31.444Z,38.40
2018-08-04T02:34:59.939Z,38.50
2018-08-04T02:37:28.283Z,38.70
2018-08-04T02:39:56.626Z,38.70
2018-08-04T02:44:52.989Z,38.80
2018-08-04T02:47:21.298Z,38.60
2018-08-04T02:49:49.657Z,38.60
2018-08-04T02:52:18.032Z,38.60
2018-08-04T02:54:46.356Z,38.40
2018-08-04T02:57:14.692Z,38.20
2018-08-04T02:59:43.010Z,37.90
2018-08-04T03:02:11.410Z,37.80
2018-08-04T03:04:39.740Z,37.70
2018-08-04T03:07:08.143Z,37.80
2018-08-04T03:09:36.637Z,37.80
2018-08-04T03:12:05.192Z,37.60
2018-08-04T03:14:33.504Z,37.70
2018-08-04T03:17:01.872Z,37.90
2018-08-04T03:19:30.440Z,38.00
2018-08-04T03:21:58.830Z,37.90
2018-08-04T03:24:27.122Z,38.10
2018-08-04T03:26:55.434Z,38.20
2018-08-04T03:29:23.877Z,38.40
2018-08-04T03:31:52.207Z,38.50
2018-08-04T03:34:20.526Z,38.30
2018-08-04T03:36:48.887Z,38.00
2018-08-04T03:39:17.212Z,38.00
2018-08-04T03:41:45.556Z,38.00
2018-08-04T03:44:13.894Z,38.00
2018-08-04T03:46:42.239Z,38.20
2018-08-04T03:49:10.579Z,38.30
2018-08-04T03:51:38.911Z,38.50
2018-08-04T03:54:07.220Z,38.70
2018-08-04T03:56:35.587Z,38.80
2018-08-04T03:59:04.064Z,38.80
2018-08-04T04:01:32.464Z,38.90
2018-08-04T04:04:00.783Z,39.10
2018-08-04T04:06:29.322Z,39.20
2018-08-04T04:08:57.696Z,39.70
2018-08-04T04:11:26.044Z,40.00
2018-08-04T04:13:54.401Z,40.20
2018-08-04T04:16:22.783Z,40.20
2018-08-04T04:18:51.101Z,40.10
2018-08-04T04:21:19.413Z,39.70
2018-08-04T04:23:47.807Z,39.50
2018-08-04T04:26:16.146Z,39.50
2018-08-04T04:28:44.480Z,39.40
2018-08-04T04:31:12.927Z,39.30
2018-08-04T04:33:41.279Z,39.40
2018-08-04T04:36:09.664Z,39.60
2018-08-04T04:38:37.981Z,39.80
2018-08-04T04:41:06.655Z,40.00
2018-08-04T04:43:35.050Z,40.20
2018-08-04T04:46:03.619Z,40.10
2018-08-04T04:48:32.144Z,40.10
2018-08-04T04:53:28.587Z,40.10
2018-08-04T04:55:56.939Z,40.10
2018-08-04T04:58:25.309Z,40.30
2018-08-04T05:00:53.595Z,40.50
2018-08-04T05:03:21.964Z,40.90
2018-08-04T05:05:50.319Z,40.90
2018-08-04T05:08:18.627Z,41.40
2018-08-04T05:10:47.016Z,40.90
2018-08-04T05:13:15.654Z,41.10
2018-08-04T05:15:43.979Z,41.60
2018-08-04T05:18:12.479Z,41.70
2018-08-04T05:20:40.809Z,41.20
2018-08-04T05:23:09.127Z,41.30
2018-08-04T05:25:37.451Z,41.70
2018-08-04T05:28:05.898Z,41.70
2018-08-04T05:30:34.362Z,42.10
2018-08-04T05:33:02.992Z,42.50
2018-08-04T05:35:31.624Z,41.90
2018-08-04T05:38:00.021Z,42.30
2018-08-04T05:40:28.391Z,42.10
2018-08-04T05:42:56.727Z,42.30
2018-08-04T05:45:25.073Z,42.10
2018-08-04T05:47:53.415Z,42.20
2018-08-04T05:50:21.939Z,42.30
2018-08-04T05:52:50.261Z,42.60
2018-08-04T05:55:18.621Z,42.70
2018-08-04T05:57:47.000Z,42.70
2018-08-04T06:00:15.598Z,42.70
2018-08-04T06:02:44.177Z,43.40
2018-08-04T06:05:12.510Z,42.60
2018-08-04T06:07:40.853Z,42.50
2018-08-04T06:10:09.246Z,42.20
2018-08-04T06:12:37.659Z,42.20
2018-08-04T06:15:06.172Z,42.10
2018-08-04T06:17:34.595Z,42.20
2018-08-04T06:20:03.084Z,42.10
2018-08-04T06:22:31.596Z,41.90
2018-08-04T06:25:00.112Z,41.70
2018-08-04T06:27:28.515Z,41.80
2018-08-04T06:29:56.857Z,41.40
2018-08-04T06:32:25.262Z,41.40
2018-08-04T06:34:53.603Z,41.50
2018-08-04T06:37:21.935Z,41.50
2018-08-04T06:39:50.338Z,41.00
2018-08-04T06:42:18.727Z,40.60
2018-08-04T06:44:47.086Z,40.40
2018-08-04T06:47:15.555Z,39.60
2018-08-04T06:49:43.930Z,39.30
2018-08-04T06:52:12.330Z,39.30
2018-08-04T06:54:40.646Z,39.00
2018-08-04T06:57:09.018Z,38.90
2018-08-04T06:59:37.383Z,38.70
2018-08-04T07:02:05.829Z,38.60
2018-08-04T07:07:02.391Z,38.60
2018-08-04T07:09:31.108Z,38.50
2018-08-04T07:11:59.556Z,38.40
2018-08-04T07:14:28.571Z,38.60
2018-08-04T07:16:56.997Z,38.10
2018-08-04T07:19:25.330Z,38.10
2018-08-04T07:21:53.667Z,37.90
2018-08-04T07:26:50.119Z,37.90
2018-08-04T07:29:18.544Z,37.90
2018-08-04T07:31:46.878Z,37.90
2018-08-04T07:34:15.409Z,37.30
2018-08-04T07:36:43.802Z,36.80
2018-08-04T07:39:12.187Z,36.60
2018-08-04T07:41:40.563Z,35.90
2018-08-04T07:44:09.079Z,35.40
2018-08-04T07:46:37.983Z,35.00
2018-08-04T07:49:06.522Z,34.50
2018-08-04T07:51:35.062Z,34.20
2018-08-04T07:54:03.543Z,33.70
2018-08-04T07:56:32.303Z,33.20
2018-08-04T07:59:00.916Z,32.70
2018-08-04T08:01:29.397Z,32.60
2018-08-04T08:03:57.883Z,31.50
2018-08-04T08:06:26.465Z,31.30
2018-08-04T08:11:22.984Z,30.30
2018-08-04T08:13:51.380Z,29.90
2018-08-04T08:16:19.771Z,29.60
2018-08-04T08:18:48.098Z,29.10
2018-08-04T08:21:16.615Z,28.90
2018-08-04T08:23:44.958Z,28.50
2018-08-04T08:26:14.475Z,28.50
2018-08-04T08:28:43.276Z,27.90
2018-08-04T08:31:11.760Z,27.80
2018-08-04T08:33:40.778Z,27.60
2018-08-04T08:36:09.778Z,27.70
2018-08-04T08:38:38.161Z,27.00
2018-08-04T08:41:06.612Z,26.80
2018-08-04T08:43:35.219Z,26.60
2018-08-04T08:48:32.073Z,25.90
2018-08-04T08:51:00.535Z,25.90
2018-08-04T08:53:29.178Z,25.70
2018-08-04T08:55:57.279Z,25.40
2018-08-04T08:58:25.626Z,25.30
2018-08-04T09:00:54.607Z,25.00
2018-08-04T09:03:22.971Z,25.00
2018-08-04T09:05:51.403Z,24.80
2018-08-04T09:08:19.946Z,25.10
2018-08-04T09:10:48.375Z,24.70
2018-08-04T09:13:16.759Z,24.40
2018-08-04T09:18:13.261Z,24.00
2018-08-04T09:20:41.755Z,23.70
2018-08-04T09:23:10.453Z,23.90
2018-08-04T09:25:39.081Z,23.30
2018-08-04T09:28:07.614Z,23.20
2018-08-04T09:30:36.228Z,23.20
2018-08-04T09:33:04.795Z,23.40
2018-08-04T09:35:33.394Z,22.70
2018-08-04T09:38:01.849Z,22.60
2018-08-04T09:40:30.392Z,22.80
2018-08-04T09:42:58.867Z,22.00
2018-08-04T09:45:27.492Z,22.00
2018-08-04T09:47:55.906Z,21.70
2018-08-04T09:50:24.647Z,21.70
2018-08-04T09:52:53.204Z,21.30
2018-08-04T09:55:21.729Z,21.30
2018-08-04T09:57:50.238Z,21.20
2018-08-04T10:00:24.215Z,21.10
2018-08-04T10:02:52.755Z,21.60
2018-08-04T10:05:21.321Z,20.90
2018-08-04T10:07:49.827Z,20.80
2018-08-04T10:10:18.492Z,20.50
2018-08-04T10:12:46.839Z,20.30
2018-08-04T10:15:15.187Z,20.10
2018-08-04T10:17:43.558Z,19.90
2018-08-04T10:20:12.573Z,19.70
2018-08-04T10:22:40.936Z,19.50
2018-08-04T10:25:09.641Z,19.40
2018-08-04T10:27:38.073Z,19.20
2018-08-04T10:30:08.608Z,18.90
2018-08-04T10:32:37.090Z,18.70
2018-08-04T10:35:05.767Z,18.60
2018-08-04T10:37:34.154Z,18.50
2018-08-04T10:40:02.636Z,18.50
2018-08-04T10:42:31.132Z,18.60
2018-08-04T10:44:59.575Z,18.50
2018-08-04T10:47:27.932Z,18.50
2018-08-04T10:49:56.290Z,18.20
2018-08-04T10:52:24.651Z,18.30
2018-08-04T10:54:53.017Z,18.30
2018-08-04T10:57:21.596Z,18.10
2018-08-04T10:59:50.003Z,17.60
2018-08-04T11:02:18.319Z,17.10
2018-08-04T11:07:14.702Z,16.90
2018-08-04T11:09:43.158Z,16.40
2018-08-04T11:12:11.635Z,16.40
2018-08-04T11:14:40.123Z,16.60
2018-08-04T11:17:08.624Z,16.20
2018-08-04T11:19:37.100Z,16.00
2018-08-04T11:22:05.572Z,15.80
2018-08-04T11:24:34.014Z,15.50
2018-08-04T11:27:02.476Z,15.80
2018-08-04T11:29:31.035Z,16.20
2018-08-04T11:34:27.871Z,14.90
2018-08-04T11:36:56.298Z,15.20
2018-08-04T11:39:24.762Z,15.20
2018-08-04T11:41:53.368Z,15.50
2018-08-04T11:44:21.952Z,14.90
2018-08-04T11:46:50.388Z,14.90
2018-08-04T11:49:18.786Z,15.10
2018-08-04T11:51:47.342Z,15.60
2018-08-04T11:54:15.736Z,14.90
2018-08-04T11:56:44.131Z,14.90
2018-08-04T11:59:12.668Z,14.40
2018-08-04T12:01:41.170Z,14.70
2018-08-04T12:04:09.490Z,14.90
2018-08-04T12:06:37.966Z,14.90
2018-08-04T12:09:08.739Z,15.50
2018-08-04T12:11:37.155Z,15.20
2018-08-04T12:14:05.697Z,15.30
2018-08-04T12:16:35.436Z,15.50
2018-08-04T12:19:04.030Z,15.70
2018-08-04T12:21:32.573Z,16.10
2018-08-04T12:24:01.220Z,16.40
2018-08-04T12:26:29.737Z,16.80
2018-08-04T12:28:58.212Z,16.70
2018-08-04T12:31:26.853Z,16.90
2018-08-04T12:33:55.233Z,16.90
2018-08-04T12:36:23.748Z,17.00
2018-08-04T12:38:52.288Z,17.10
2018-08-04T12:41:20.874Z,17.20
2018-08-04T12:43:49.678Z,17.00
2018-08-04T12:46:18.726Z,17.30
2018-08-04T12:48:47.839Z,17.90
2018-08-04T12:51:16.334Z,18.50
2018-08-04T12:53:45.078Z,19.30
2018-08-04T12:58:42.386Z,20.10
2018-08-04T13:01:10.787Z,20.20
2018-08-04T13:03:39.193Z,20.40
2018-08-04T13:06:07.732Z,20.60
2018-08-04T13:08:36.210Z,20.50
2018-08-04T13:11:04.840Z,21.00
2018-08-04T13:13:33.478Z,22.00
2018-08-04T13:16:02.137Z,22.30
2018-08-04T13:18:30.684Z,22.60
2018-08-04T13:20:59.246Z,21.70
2018-08-04T13:23:27.568Z,22.10
2018-08-04T13:25:55.977Z,21.20
2018-08-04T13:28:24.320Z,21.30
2018-08-04T13:30:52.830Z,21.40
2018-08-04T13:33:21.426Z,21.20
2018-08-04T13:35:49.823Z,20.70
2018-08-04T13:38:18.191Z,20.60
2018-08-04T13:40:46.588Z,20.80
2018-08-04T13:43:14.930Z,19.80
2018-08-04T13:45:43.294Z,19.80
2018-08-04T13:48:11.650Z,19.60
2018-08-04T13:50:40.055Z,19.40
2018-08-04T13:53:08.420Z,19.40
2018-08-04T13:55:36.772Z,19.40
2018-08-04T13:58:05.397Z,19.90
2018-08-04T14:00:33.954Z,19.40
2018-08-04T14:03:02.540Z,19.10
2018-08-04T14:07:59.029Z,18.60
2018-08-04T14:10:27.352Z,18.80
2018-08-04T14:12:55.736Z,18.80
2018-08-04T14:15:24.265Z,18.40
2018-08-04T14:17:52.619Z,18.70
2018-08-04T14:20:21.194Z,18.70
2018-08-04T14:22:49.566Z,18.40
2018-08-04T14:25:17.862Z,18.70
2018-08-04T14:27:46.244Z,18.00
2018-08-04T14:30:14.647Z,16.50
2018-08-04T14:32:42.975Z,16.10
2018-08-04T14:35:11.324Z,16.00
2018-08-04T14:37:39.707Z,15.20
2018-08-04T14:40:08.206Z,15.00
2018-08-04T14:42:36.634Z,15.10
2018-08-04T14:45:05.163Z,14.80
2018-08-04T14:47:33.784Z,15.50
2018-08-04T14:50:02.527Z,15.00
2018-08-04T14:52:31.111Z,15.10
2018-08-04T14:54:59.617Z,15.60
2018-08-04T14:57:28.328Z,15.50
2018-08-04T14:59:56.704Z,15.30
2018-08-04T15:02:25.144Z,15.60
2018-08-04T15:04:53.601Z,15.40
2018-08-04T15:07:22.136Z,15.60
2018-08-04T15:09:50.499Z,15.80
2018-08-04T15:12:19.057Z,15.40
2018-08-04T15:14:47.386Z,15.70
2018-08-04T15:17:15.824Z,15.50
2018-08-04T15:19:44.241Z,15.70
2018-08-04T15:22:12.701Z,15.60
2018-08-04T15:24:41.083Z,16.00
2018-08-04T15:27:09.483Z,15.30
2018-08-04T15:29:37.960Z,15.40
2018-08-04T15:32:06.394Z,15.30
2018-08-04T15:34:34.762Z,15.00
2018-08-04T15:37:03.121Z,15.80
2018-08-04T15:39:31.518Z,15.60
2018-08-04T15:41:59.956Z,15.20
2018-08-04T15:44:28.498Z,15.50
2018-08-04T15:46:56.862Z,15.20
2018-08-04T15:49:25.377Z,15.10
2018-08-04T15:51:53.783Z,15.30
2018-08-04T15:54:22.178Z,15.40
2018-08-04T15:56:50.541Z,15.50
2018-08-04T15:59:18.967Z,15.50
2018-08-04T16:01:47.541Z,15.50
2018-08-04T16:04:15.963Z,15.50
2018-08-04T16:06:44.345Z,15.40
2018-08-04T16:09:12.843Z,15.50
2018-08-04T16:11:42.042Z,15.00
2018-08-04T16:14:10.661Z,15.30
2018-08-04T16:16:39.835Z,15.30
2018-08-04T16:19:08.252Z,15.10
2018-08-04T16:21:36.881Z,15.30
2018-08-04T16:24:05.488Z,15.50
2018-08-04T16:26:33.898Z,15.80
2018-08-04T16:29:02.461Z,16.00
2018-08-04T16:31:31.695Z,16.40
2018-08-04T16:34:00.823Z,16.60
2018-08-04T16:36:29.439Z,17.10
2018-08-04T16:38:58.169Z,17.30
2018-08-04T16:41:27.480Z,17.60
2018-08-04T16:43:56.429Z,17.90
2018-08-04T16:46:25.019Z,18.30
2018-08-04T16:48:53.659Z,18.90
2018-08-04T16:51:22.100Z,18.60
2018-08-04T16:53:50.458Z,18.90
2018-08-04T16:56:18.820Z,19.00
2018-08-04T16:58:47.199Z,19.00
2018-08-04T17:01:15.515Z,19.30
2018-08-04T17:03:43.848Z,19.50
2018-08-04T17:06:12.166Z,19.70
2018-08-04T17:08:40.554Z,19.40
2018-08-04T17:11:08.895Z,19.90
2018-08-04T17:13:37.266Z,19.90
2018-08-04T17:16:05.611Z,20.10
2018-08-04T17:18:34.208Z,20.40
2018-08-04T17:21:02.647Z,20.40
2018-08-04T17:23:31.548Z,20.40
2018-08-04T17:25:59.981Z,20.30
2018-08-04T17:28:28.492Z,20.30
2018-08-04T17:30:57.543Z,20.60
2018-08-04T17:33:26.600Z,20.90
2018-08-04T17:35:55.012Z,20.70
2018-08-04T17:38:23.544Z,20.80
2018-08-04T17:40:51.854Z,21.00
2018-08-04T17:43:20.816Z,21.00
2018-08-04T17:45:50.393Z,21.10
2018-08-04T17:48:19.844Z,21.10
2018-08-04T17:50:48.377Z,21.30
2018-08-04T17:53:16.754Z,21.50
2018-08-04T17:55:45.696Z,21.50
2018-08-04T17:58:14.075Z,21.50
2018-08-04T18:00:42.496Z,21.60
2018-08-04T18:03:10.910Z,21.50
2018-08-04T18:05:39.431Z,21.70
2018-08-04T18:08:08.737Z,21.80
2018-08-04T18:10:37.137Z,21.90
2018-08-04T18:13:05.602Z,21.70
2018-08-04T18:15:34.010Z,22.00
2018-08-04T18:18:02.490Z,21.90
2018-08-04T18:20:31.305Z,21.80
2018-08-04T18:25:29.296Z,21.80
2018-08-04T18:27:57.692Z,22.00
2018-08-04T18:30:26.073Z,22.00
2018-08-04T18:32:54.629Z,22.10
2018-08-04T18:35:23.036Z,21.90
2018-08-04T18:37:51.448Z,21.80
2018-08-04T18:40:19.937Z,21.70
2018-08-04T18:42:48.334Z,21.80
2018-08-04T18:45:16.750Z,22.00
2018-08-04T18:47:45.326Z,21.90
2018-08-04T18:50:14.125Z,21.90
2018-08-04T18:52:42.761Z,22.00
2018-08-04T18:55:11.119Z,22.10
2018-08-04T18:57:39.477Z,22.20
2018-08-04T19:00:07.938Z,22.20
2018-08-04T19:02:36.380Z,21.90
2018-08-04T19:05:04.828Z,22.30
2018-08-04T19:07:33.199Z,22.10
2018-08-04T19:10:01.600Z,22.10
2018-08-04T19:12:30.270Z,23.10
2018-08-04T19:14:58.775Z,22.60
2018-08-04T19:17:27.226Z,22.60
2018-08-04T19:19:56.578Z,22.60
2018-08-04T19:22:24.986Z,22.50
2018-08-04T19:24:53.378Z,22.50
2018-08-04T19:27:21.830Z,22.30
2018-08-04T19:29:50.386Z,22.50
2018-08-04T19:32:18.735Z,22.60
2018-08-04T19:34:47.145Z,22.80
2018-08-04T19:37:15.954Z,22.60
2018-08-04T19:39:44.340Z,22.90
2018-08-04T19:42:12.880Z,22.60
2018-08-04T19:44:41.340Z,22.40
2018-08-04T19:47:09.826Z,22.40
2018-08-04T19:49:38.479Z,22.30
2018-08-04T19:52:07.765Z,22.60
2018-08-04T19:54:36.553Z,22.70
2018-08-04T19:57:05.264Z,22.40
2018-08-04T19:59:33.937Z,22.50
2018-08-04T20:02:02.870Z,22.30
2018-08-04T20:04:31.836Z,22.10
2018-08-04T20:07:01.077Z,22.10
2018-08-04T20:09:29.796Z,22.30
2018-08-04T20:11:58.281Z,22.50
2018-08-04T20:14:26.846Z,22.20
2018-08-04T20:16:55.311Z,22.00
2018-08-04T20:19:23.659Z,22.30
2018-08-04T20:21:52.095Z,22.50
2018-08-04T20:24:20.412Z,22.40
2018-08-04T20:26:48.869Z,22.20
2018-08-04T20:29:17.236Z,22.40
2018-08-04T20:31:45.765Z,22.40
2018-08-04T20:34:14.157Z,22.60
2018-08-04T20:36:42.532Z,22.80
2018-08-04T20:39:11.282Z,22.90
2018-08-04T20:41:39.749Z,22.90
2018-08-04T20:44:08.072Z,23.40
2018-08-04T20:46:36.590Z,22.90
2018-08-04T20:49:05.311Z,23.00
2018-08-04T20:51:34.104Z,23.10
2018-08-04T20:54:02.595Z,23.60
2018-08-04T20:56:31.111Z,23.30
2018-08-04T20:58:59.463Z,23.40
2018-08-04T21:01:36.593Z,23.60
2018-08-04T21:04:04.962Z,23.80
2018-08-04T21:06:33.544Z,24.00
2018-08-04T21:09:01.990Z,24.10
2018-08-04T21:16:33.190Z,24.80
2018-08-04T21:19:08.092Z,25.00
2018-08-04T21:21:36.523Z,25.20
2018-08-04T21:24:05.049Z,25.50
2018-08-04T21:26:33.940Z,25.60
2018-08-04T21:29:02.524Z,25.70
2018-08-04T21:31:31.549Z,25.90
2018-08-04T21:34:00.028Z,26.00
2018-08-04T21:36:28.672Z,26.10
2018-08-04T21:38:57.104Z,26.20
2018-08-04T21:41:25.585Z,26.40
2018-08-04T21:43:53.948Z,26.40
2018-08-04T21:46:22.283Z,26.60
2018-08-04T21:48:50.758Z,26.70
2018-08-04T21:51:19.171Z,26.80
2018-08-04T21:53:47.608Z,26.80
2018-08-04T21:56:16.099Z,27.00
2018-08-04T21:58:44.448Z,27.10
2018-08-04T22:01:14.674Z,27.20
2018-08-04T22:03:44.262Z,27.30
2018-08-04T22:06:13.402Z,27.30
2018-08-04T22:08:53.191Z,27.50
2018-08-04T22:11:21.578Z,27.60
2018-08-04T22:13:49.916Z,28.00
2018-08-04T22:16:18.356Z,27.80
2018-08-04T22:18:46.710Z,27.90
2018-08-04T22:21:15.396Z,28.00
2018-08-04T22:23:46.677Z,28.00
2018-08-04T22:26:15.023Z,28.10
2018-08-04T22:28:43.372Z,28.10
2018-08-04T22:31:11.700Z,28.30
2018-08-04T22:33:40.004Z,28.30
2018-08-04T22:36:08.440Z,28.40
2018-08-04T22:38:36.789Z,28.50
2018-08-04T22:41:05.283Z,28.50
2018-08-04T22:43:33.806Z,28.60
2018-08-04T22:46:07.798Z,29.20
2018-08-04T22:48:36.630Z,28.80
2018-08-04T22:51:05.073Z,28.90
2018-08-04T22:53:33.827Z,28.90
2018-08-04T22:56:02.376Z,29.00
2018-08-04T22:58:30.919Z,29.00
2018-08-04T23:00:59.619Z,29.10
2018-08-04T23:03:28.146Z,29.10
2018-08-04T23:05:56.555Z,29.10
2018-08-04T23:08:24.911Z,29.20
2018-08-04T23:10:53.275Z,29.20
2018-08-04T23:13:21.609Z,29.20
2018-08-04T23:15:49.991Z,29.30
2018-08-04T23:18:18.359Z,29.20
2018-08-04T23:20:46.751Z,29.30
2018-08-04T23:23:15.109Z,29.40
2018-08-04T23:25:43.476Z,29.40
2018-08-04T23:28:11.784Z,30.00
2018-08-04T23:30:40.084Z,29.50
2018-08-04T23:33:08.404Z,29.50
2018-08-04T23:35:37.038Z,29.60
2018-08-04T23:38:05.415Z,29.70
2018-08-04T23:40:33.882Z,29.80
2018-08-04T23:43:02.431Z,29.90
2018-08-04T23:45:31.020Z,30.00
2018-08-04T23:47:59.480Z,30.00
2018-08-04T23:50:27.847Z,30.00
2018-08-04T23:52:56.249Z,30.10
2018-08-04T23:55:24.707Z,30.20
2018-08-04T23:57:59.442Z,30.40
